sensor_id;sensor_type;location;lat;lon;timestamp;temperature;humidity
61117;DHT22;47002;50.856;6.580;2023-01-15T00:01:39;5.10;84.30
61117;DHT22;47002;50.856;6.580;2023-01-15T00:04:06;5.10;83.80
61117;DHT22;47002;50.856;6.580;2023-01-15T00:06:35;5.10;84.70
61117;DHT22;47002;50.856;6.580;2023-01-15T00:09:02;5.00;84.80
61117;DHT22;47002;50.856;6.580;2023-01-15T00:11:27;4.90;85.00
61117;DHT22;47002;50.856;6.580;2023-01-15T00:13:55;4.90;85.10
61117;DHT22;47002;50.856;6.580;2023-01-15T00:16:22;4.80;85.70
61117;DHT22;47002;50.856;6.580;2023-01-15T00:18:52;4.70;85.40
61117;DHT22;47002;50.856;6.580;2023-01-15T00:21:18;4.60;86.10
61117;DHT22;47002;50.856;6.580;2023-01-15T00:23:44;4.50;86.80
61117;DHT22;47002;50.856;6.580;2023-01-15T00:26:12;4.50;86.50
61117;DHT22;47002;50.856;6.580;2023-01-15T00:28:39;4.50;86.30
61117;DHT22;47002;50.856;6.580;2023-01-15T00:31:06;4.50;86.70
61117;DHT22;47002;50.856;6.580;2023-01-15T00:33:32;4.40;86.80
61117;DHT22;47002;50.856;6.580;2023-01-15T00:35:57;4.40;86.10
61117;DHT22;47002;50.856;6.580;2023-01-15T00:38:23;4.40;86.70
61117;DHT22;47002;50.856;6.580;2023-01-15T00:40:48;4.30;87.00
61117;DHT22;47002;50.856;6.580;2023-01-15T00:43:14;4.20;87.00
61117;DHT22;47002;50.856;6.580;2023-01-15T00:45:40;4.20;86.90
61117;DHT22;47002;50.856;6.580;2023-01-15T00:48:07;4.20;86.10
61117;DHT22;47002;50.856;6.580;2023-01-15T00:50:33;4.20;85.80
61117;DHT22;47002;50.856;6.580;2023-01-15T00:52:58;4.20;85.20
61117;DHT22;47002;50.856;6.580;2023-01-15T00:55:24;4.20;85.10
61117;DHT22;47002;50.856;6.580;2023-01-15T00:57:50;4.20;85.60
61117;DHT22;47002;50.856;6.580;2023-01-15T01:00:16;4.20;85.60
61117;DHT22;47002;50.856;6.580;2023-01-15T01:02:42;4.20;86.00
61117;DHT22;47002;50.856;6.580;2023-01-15T01:05:09;4.20;86.10
61117;DHT22;47002;50.856;6.580;2023-01-15T01:07:35;4.10;86.00
61117;DHT22;47002;50.856;6.580;2023-01-15T01:10:00;4.10;86.10
61117;DHT22;47002;50.856;6.580;2023-01-15T01:12:26;4.20;86.20
61117;DHT22;47002;50.856;6.580;2023-01-15T01:14:52;4.10;85.10
61117;DHT22;47002;50.856;6.580;2023-01-15T01:17:17;4.30;85.40
61117;DHT22;47002;50.856;6.580;2023-01-15T01:19:43;4.30;84.30
61117;DHT22;47002;50.856;6.580;2023-01-15T01:22:10;4.40;84.30
61117;DHT22;47002;50.856;6.580;2023-01-15T01:24:36;4.40;84.20
61117;DHT22;47002;50.856;6.580;2023-01-15T01:27:01;4.40;84.50
61117;DHT22;47002;50.856;6.580;2023-01-15T01:29:27;4.40;84.20
61117;DHT22;47002;50.856;6.580;2023-01-15T01:31:53;4.40;84.30
61117;DHT22;47002;50.856;6.580;2023-01-15T01:34:18;4.40;84.40
61117;DHT22;47002;50.856;6.580;2023-01-15T01:36:44;4.40;83.90
61117;DHT22;47002;50.856;6.580;2023-01-15T01:39:14;4.40;84.00
61117;DHT22;47002;50.856;6.580;2023-01-15T01:41:40;4.40;84.00
61117;DHT22;47002;50.856;6.580;2023-01-15T01:44:07;4.40;83.60
61117;DHT22;47002;50.856;6.580;2023-01-15T01:46:54;4.40;83.30
61117;DHT22;47002;50.856;6.580;2023-01-15T01:49:19;4.50;83.20
61117;DHT22;47002;50.856;6.580;2023-01-15T01:51:49;4.50;82.70
61117;DHT22;47002;50.856;6.580;2023-01-15T01:54:17;4.40;82.50
61117;DHT22;47002;50.856;6.580;2023-01-15T01:56:43;4.40;82.80
61117;DHT22;47002;50.856;6.580;2023-01-15T01:59:11;4.40;83.10
61117;DHT22;47002;50.856;6.580;2023-01-15T02:01:37;4.40;82.10
61117;DHT22;47002;50.856;6.580;2023-01-15T02:04:05;4.40;82.70
61117;DHT22;47002;50.856;6.580;2023-01-15T02:06:32;4.40;82.90
61117;DHT22;47002;50.856;6.580;2023-01-15T02:08:58;4.30;82.80
61117;DHT22;47002;50.856;6.580;2023-01-15T02:11:24;4.40;82.70
61117;DHT22;47002;50.856;6.580;2023-01-15T02:13:54;4.40;82.50
61117;DHT22;47002;50.856;6.580;2023-01-15T02:16:24;4.40;82.20
61117;DHT22;47002;50.856;6.580;2023-01-15T02:18:59;4.40;82.20
61117;DHT22;47002;50.856;6.580;2023-01-15T02:21:38;4.40;82.40
61117;DHT22;47002;50.856;6.580;2023-01-15T02:24:14;4.40;82.60
61117;DHT22;47002;50.856;6.580;2023-01-15T02:26:55;4.40;82.30
61117;DHT22;47002;50.856;6.580;2023-01-15T02:29:28;4.40;82.70
61117;DHT22;47002;50.856;6.580;2023-01-15T02:31:55;4.40;82.60
61117;DHT22;47002;50.856;6.580;2023-01-15T02:34:23;4.40;82.60
61117;DHT22;47002;50.856;6.580;2023-01-15T02:36:53;4.40;82.90
61117;DHT22;47002;50.856;6.580;2023-01-15T02:39:22;4.40;82.90
61117;DHT22;47002;50.856;6.580;2023-01-15T02:41:52;4.40;83.20
61117;DHT22;47002;50.856;6.580;2023-01-15T02:44:22;4.40;83.20
61117;DHT22;47002;50.856;6.580;2023-01-15T02:46:49;4.40;83.30
61117;DHT22;47002;50.856;6.580;2023-01-15T02:49:19;4.40;83.60
61117;DHT22;47002;50.856;6.580;2023-01-15T02:51:50;4.40;83.40
61117;DHT22;47002;50.856;6.580;2023-01-15T02:54:17;4.50;83.60
61117;DHT22;47002;50.856;6.580;2023-01-15T02:56:44;4.50;83.30
61117;DHT22;47002;50.856;6.580;2023-01-15T02:59:17;4.60;83.10
61117;DHT22;47002;50.856;6.580;2023-01-15T03:01:47;4.60;82.80
61117;DHT22;47002;50.856;6.580;2023-01-15T03:04:17;4.60;82.70
61117;DHT22;47002;50.856;6.580;2023-01-15T03:06:48;4.60;82.10
61117;DHT22;47002;50.856;6.580;2023-01-15T03:09:16;4.60;82.30
61117;DHT22;47002;50.856;6.580;2023-01-15T03:11:44;4.70;81.80
61117;DHT22;47002;50.856;6.580;2023-01-15T03:14:18;4.70;81.10
61117;DHT22;47002;50.856;6.580;2023-01-15T03:16:47;4.70;79.70
61117;DHT22;47002;50.856;6.580;2023-01-15T03:19:21;4.80;79.50
61117;DHT22;47002;50.856;6.580;2023-01-15T03:21:51;4.80;79.20
61117;DHT22;47002;50.856;6.580;2023-01-15T03:24:25;4.80;79.40
61117;DHT22;47002;50.856;6.580;2023-01-15T03:26:53;4.80;79.90
61117;DHT22;47002;50.856;6.580;2023-01-15T03:29:22;4.70;79.90
61117;DHT22;47002;50.856;6.580;2023-01-15T03:31:48;4.70;79.50
61117;DHT22;47002;50.856;6.580;2023-01-15T03:34:14;4.70;79.90
61117;DHT22;47002;50.856;6.580;2023-01-15T03:36:40;4.60;79.60
61117;DHT22;47002;50.856;6.580;2023-01-15T03:39:05;4.60;80.40
61117;DHT22;47002;50.856;6.580;2023-01-15T03:41:41;4.60;80.80
61117;DHT22;47002;50.856;6.580;2023-01-15T03:44:16;4.50;81.20
61117;DHT22;47002;50.856;6.580;2023-01-15T03:46:53;4.40;81.50
61117;DHT22;47002;50.856;6.580;2023-01-15T03:49:25;4.50;80.90
61117;DHT22;47002;50.856;6.580;2023-01-15T03:52:00;4.50;81.30
61117;DHT22;47002;50.856;6.580;2023-01-15T03:54:35;4.50;80.90
61117;DHT22;47002;50.856;6.580;2023-01-15T03:57:07;4.50;80.70
61117;DHT22;47002;50.856;6.580;2023-01-15T03:59:38;4.50;81.00
61117;DHT22;47002;50.856;6.580;2023-01-15T04:02:08;4.50;80.70
61117;DHT22;47002;50.856;6.580;2023-01-15T04:04:36;4.60;81.10
61117;DHT22;47002;50.856;6.580;2023-01-15T04:07:03;4.60;80.60
61117;DHT22;47002;50.856;6.580;2023-01-15T04:09:29;4.60;81.30
61117;DHT22;47002;50.856;6.580;2023-01-15T04:11:57;4.60;81.00
61117;DHT22;47002;50.856;6.580;2023-01-15T04:14:23;4.70;81.10
61117;DHT22;47002;50.856;6.580;2023-01-15T04:16:49;4.70;80.90
61117;DHT22;47002;50.856;6.580;2023-01-15T04:19:16;4.70;80.70
61117;DHT22;47002;50.856;6.580;2023-01-15T04:21:41;4.70;80.20
61117;DHT22;47002;50.856;6.580;2023-01-15T04:24:07;4.70;80.10
61117;DHT22;47002;50.856;6.580;2023-01-15T04:26:33;4.80;80.10
61117;DHT22;47002;50.856;6.580;2023-01-15T04:28:58;4.70;79.90
61117;DHT22;47002;50.856;6.580;2023-01-15T04:31:24;4.70;79.90
61117;DHT22;47002;50.856;6.580;2023-01-15T04:33:50;4.70;80.10
61117;DHT22;47002;50.856;6.580;2023-01-15T04:36:17;4.70;79.40
61117;DHT22;47002;50.856;6.580;2023-01-15T04:38:43;4.70;79.20
61117;DHT22;47002;50.856;6.580;2023-01-15T04:41:09;4.70;78.30
61117;DHT22;47002;50.856;6.580;2023-01-15T04:43:35;4.80;78.80
61117;DHT22;47002;50.856;6.580;2023-01-15T04:46:01;4.70;78.80
61117;DHT22;47002;50.856;6.580;2023-01-15T04:48:26;4.80;78.90
61117;DHT22;47002;50.856;6.580;2023-01-15T04:50:53;4.80;79.00
61117;DHT22;47002;50.856;6.580;2023-01-15T04:53:20;4.80;79.10
61117;DHT22;47002;50.856;6.580;2023-01-15T04:55:46;4.80;79.20
61117;DHT22;47002;50.856;6.580;2023-01-15T04:58:12;4.80;78.90
61117;DHT22;47002;50.856;6.580;2023-01-15T05:00:37;4.80;79.00
61117;DHT22;47002;50.856;6.580;2023-01-15T05:03:04;4.80;78.70
61117;DHT22;47002;50.856;6.580;2023-01-15T05:05:30;4.80;78.80
61117;DHT22;47002;50.856;6.580;2023-01-15T05:07:56;4.80;78.60
61117;DHT22;47002;50.856;6.580;2023-01-15T05:10:24;4.80;78.80
61117;DHT22;47002;50.856;6.580;2023-01-15T05:12:49;4.80;78.10
61117;DHT22;47002;50.856;6.580;2023-01-15T05:15:15;4.80;77.60
61117;DHT22;47002;50.856;6.580;2023-01-15T05:17:41;4.90;77.30
61117;DHT22;47002;50.856;6.580;2023-01-15T05:20:08;4.90;77.50
61117;DHT22;47002;50.856;6.580;2023-01-15T05:22:34;4.90;77.80
61117;DHT22;47002;50.856;6.580;2023-01-15T05:24:59;4.80;77.60
61117;DHT22;47002;50.856;6.580;2023-01-15T05:27:27;4.80;77.80
61117;DHT22;47002;50.856;6.580;2023-01-15T05:29:52;4.80;77.70
61117;DHT22;47002;50.856;6.580;2023-01-15T05:32:18;4.80;77.60
61117;DHT22;47002;50.856;6.580;2023-01-15T05:34:44;4.80;78.20
61117;DHT22;47002;50.856;6.580;2023-01-15T05:37:09;4.70;79.30
61117;DHT22;47002;50.856;6.580;2023-01-15T05:39:35;4.70;80.00
61117;DHT22;47002;50.856;6.580;2023-01-15T05:42:01;4.60;80.70
61117;DHT22;47002;50.856;6.580;2023-01-15T05:44:28;4.50;80.80
61117;DHT22;47002;50.856;6.580;2023-01-15T05:46:56;4.50;81.70
61117;DHT22;47002;50.856;6.580;2023-01-15T05:49:23;4.40;82.00
61117;DHT22;47002;50.856;6.580;2023-01-15T05:51:50;4.40;82.30
61117;DHT22;47002;50.856;6.580;2023-01-15T05:54:18;4.40;82.00
61117;DHT22;47002;50.856;6.580;2023-01-15T05:56:44;4.40;82.20
61117;DHT22;47002;50.856;6.580;2023-01-15T05:59:11;4.40;82.60
61117;DHT22;47002;50.856;6.580;2023-01-15T06:01:38;4.40;82.80
61117;DHT22;47002;50.856;6.580;2023-01-15T06:04:05;4.30;82.80
61117;DHT22;47002;50.856;6.580;2023-01-15T06:06:31;4.30;82.50
61117;DHT22;47002;50.856;6.580;2023-01-15T06:08:57;4.30;82.40
61117;DHT22;47002;50.856;6.580;2023-01-15T06:11:23;4.30;82.00
61117;DHT22;47002;50.856;6.580;2023-01-15T06:13:49;4.30;81.90
61117;DHT22;47002;50.856;6.580;2023-01-15T06:16:15;4.30;81.40
61117;DHT22;47002;50.856;6.580;2023-01-15T06:18:42;4.30;80.60
61117;DHT22;47002;50.856;6.580;2023-01-15T06:21:09;4.40;80.40
61117;DHT22;47002;50.856;6.580;2023-01-15T06:23:36;4.40;80.70
61117;DHT22;47002;50.856;6.580;2023-01-15T06:26:02;4.40;80.60
61117;DHT22;47002;50.856;6.580;2023-01-15T06:28:28;4.40;80.80
61117;DHT22;47002;50.856;6.580;2023-01-15T06:30:54;4.40;81.10
61117;DHT22;47002;50.856;6.580;2023-01-15T06:33:20;4.50;81.00
61117;DHT22;47002;50.856;6.580;2023-01-15T06:35:47;4.50;81.20
61117;DHT22;47002;50.856;6.580;2023-01-15T06:38:12;4.50;81.70
61117;DHT22;47002;50.856;6.580;2023-01-15T06:40:38;4.40;82.00
61117;DHT22;47002;50.856;6.580;2023-01-15T06:43:04;4.40;82.00
61117;DHT22;47002;50.856;6.580;2023-01-15T06:45:37;4.40;82.40
61117;DHT22;47002;50.856;6.580;2023-01-15T06:48:03;4.40;82.50
61117;DHT22;47002;50.856;6.580;2023-01-15T06:50:29;4.40;82.70
61117;DHT22;47002;50.856;6.580;2023-01-15T06:52:56;4.40;82.70
61117;DHT22;47002;50.856;6.580;2023-01-15T06:55:21;4.40;82.80
61117;DHT22;47002;50.856;6.580;2023-01-15T06:57:47;4.30;82.70
61117;DHT22;47002;50.856;6.580;2023-01-15T07:00:14;4.40;82.50
61117;DHT22;47002;50.856;6.580;2023-01-15T07:02:39;4.30;82.40
61117;DHT22;47002;50.856;6.580;2023-01-15T07:05:05;4.30;82.60
61117;DHT22;47002;50.856;6.580;2023-01-15T07:07:31;4.30;82.30
61117;DHT22;47002;50.856;6.580;2023-01-15T07:09:58;4.40;82.70
61117;DHT22;47002;50.856;6.580;2023-01-15T07:12:24;4.40;82.40
61117;DHT22;47002;50.856;6.580;2023-01-15T07:14:50;4.30;82.70
61117;DHT22;47002;50.856;6.580;2023-01-15T07:17:16;4.30;82.90
61117;DHT22;47002;50.856;6.580;2023-01-15T07:19:41;4.30;82.50
61117;DHT22;47002;50.856;6.580;2023-01-15T07:22:08;4.20;82.30
61117;DHT22;47002;50.856;6.580;2023-01-15T07:24:34;4.20;82.30
61117;DHT22;47002;50.856;6.580;2023-01-15T07:27:01;4.20;82.40
61117;DHT22;47002;50.856;6.580;2023-01-15T07:29:27;4.20;82.20
61117;DHT22;47002;50.856;6.580;2023-01-15T07:31:53;4.20;82.20
61117;DHT22;47002;50.856;6.580;2023-01-15T07:34:19;4.20;81.80
61117;DHT22;47002;50.856;6.580;2023-01-15T07:36:45;4.20;81.60
61117;DHT22;47002;50.856;6.580;2023-01-15T07:39:11;4.10;81.30
61117;DHT22;47002;50.856;6.580;2023-01-15T07:41:37;4.20;81.20
61117;DHT22;47002;50.856;6.580;2023-01-15T07:44:04;4.20;81.50
61117;DHT22;47002;50.856;6.580;2023-01-15T07:46:30;4.10;81.30
61117;DHT22;47002;50.856;6.580;2023-01-15T07:48:56;4.10;81.80
61117;DHT22;47002;50.856;6.580;2023-01-15T07:51:21;4.10;82.20
61117;DHT22;47002;50.856;6.580;2023-01-15T07:53:47;4.10;83.20
61117;DHT22;47002;50.856;6.580;2023-01-15T07:56:13;4.00;85.10
61117;DHT22;47002;50.856;6.580;2023-01-15T07:58:39;3.80;86.40
61117;DHT22;47002;50.856;6.580;2023-01-15T08:01:06;3.50;87.50
61117;DHT22;47002;50.856;6.580;2023-01-15T08:03:31;3.40;87.50
61117;DHT22;47002;50.856;6.580;2023-01-15T08:05:57;3.10;86.70
61117;DHT22;47002;50.856;6.580;2023-01-15T08:08:23;2.80;87.70
61117;DHT22;47002;50.856;6.580;2023-01-15T08:10:48;2.60;88.60
61117;DHT22;47002;50.856;6.580;2023-01-15T08:13:14;2.40;89.20
61117;DHT22;47002;50.856;6.580;2023-01-15T08:15:40;2.30;89.40
61117;DHT22;47002;50.856;6.580;2023-01-15T08:18:07;2.20;89.60
61117;DHT22;47002;50.856;6.580;2023-01-15T08:20:34;2.20;89.80
61117;DHT22;47002;50.856;6.580;2023-01-15T08:23:00;2.20;90.20
61117;DHT22;47002;50.856;6.580;2023-01-15T08:25:26;2.10;90.50
61117;DHT22;47002;50.856;6.580;2023-01-15T08:27:52;2.20;90.90
61117;DHT22;47002;50.856;6.580;2023-01-15T08:30:20;2.20;91.10
61117;DHT22;47002;50.856;6.580;2023-01-15T08:32:46;2.20;91.20
61117;DHT22;47002;50.856;6.580;2023-01-15T08:35:13;2.20;91.30
61117;DHT22;47002;50.856;6.580;2023-01-15T08:37:39;2.30;91.40
61117;DHT22;47002;50.856;6.580;2023-01-15T08:40:06;2.30;91.40
61117;DHT22;47002;50.856;6.580;2023-01-15T08:42:33;2.40;91.70
61117;DHT22;47002;50.856;6.580;2023-01-15T08:44:58;2.50;91.80
61117;DHT22;47002;50.856;6.580;2023-01-15T08:47:24;2.80;91.20
61117;DHT22;47002;50.856;6.580;2023-01-15T08:49:50;3.00;90.40
61117;DHT22;47002;50.856;6.580;2023-01-15T08:52:17;3.20;89.30
61117;DHT22;47002;50.856;6.580;2023-01-15T08:54:42;3.30;88.40
61117;DHT22;47002;50.856;6.580;2023-01-15T08:57:08;3.40;87.90
61117;DHT22;47002;50.856;6.580;2023-01-15T08:59:34;3.50;87.60
61117;DHT22;47002;50.856;6.580;2023-01-15T09:02:00;3.50;87.00
61117;DHT22;47002;50.856;6.580;2023-01-15T09:04:26;3.60;86.60
61117;DHT22;47002;50.856;6.580;2023-01-15T09:06:52;3.60;86.40
61117;DHT22;47002;50.856;6.580;2023-01-15T09:09:19;3.60;85.80
61117;DHT22;47002;50.856;6.580;2023-01-15T09:11:44;3.70;85.20
61117;DHT22;47002;50.856;6.580;2023-01-15T09:14:12;3.70;85.10
61117;DHT22;47002;50.856;6.580;2023-01-15T09:16:38;3.70;84.30
61117;DHT22;47002;50.856;6.580;2023-01-15T09:19:05;3.70;84.70
61117;DHT22;47002;50.856;6.580;2023-01-15T09:21:32;3.70;84.20
61117;DHT22;47002;50.856;6.580;2023-01-15T09:23:57;3.70;83.80
61117;DHT22;47002;50.856;6.580;2023-01-15T09:26:30;3.70;83.90
61117;DHT22;47002;50.856;6.580;2023-01-15T09:28:56;3.70;83.70
61117;DHT22;47002;50.856;6.580;2023-01-15T09:31:23;3.70;83.10
61117;DHT22;47002;50.856;6.580;2023-01-15T09:33:48;3.80;82.80
61117;DHT22;47002;50.856;6.580;2023-01-15T09:36:15;3.90;83.00
61117;DHT22;47002;50.856;6.580;2023-01-15T09:38:41;3.90;83.20
61117;DHT22;47002;50.856;6.580;2023-01-15T09:41:10;4.10;82.40
61117;DHT22;47002;50.856;6.580;2023-01-15T09:43:45;4.20;82.50
61117;DHT22;47002;50.856;6.580;2023-01-15T09:46:17;4.30;82.00
61117;DHT22;47002;50.856;6.580;2023-01-15T09:48:51;4.30;82.30
61117;DHT22;47002;50.856;6.580;2023-01-15T09:51:29;4.40;80.90
61117;DHT22;47002;50.856;6.580;2023-01-15T09:54:11;4.50;80.20
61117;DHT22;47002;50.856;6.580;2023-01-15T09:56:38;4.50;79.70
61117;DHT22;47002;50.856;6.580;2023-01-15T09:59:17;4.50;80.10
61117;DHT22;47002;50.856;6.580;2023-01-15T10:01:44;4.50;79.90
61117;DHT22;47002;50.856;6.580;2023-01-15T10:04:15;4.60;79.10
61117;DHT22;47002;50.856;6.580;2023-01-15T10:06:53;4.60;79.40
61117;DHT22;47002;50.856;6.580;2023-01-15T10:09:22;4.70;78.90
61117;DHT22;47002;50.856;6.580;2023-01-15T10:11:51;4.70;78.60
61117;DHT22;47002;50.856;6.580;2023-01-15T10:14:32;4.70;78.40
61117;DHT22;47002;50.856;6.580;2023-01-15T10:16:59;4.80;77.50
61117;DHT22;47002;50.856;6.580;2023-01-15T10:19:24;4.80;77.20
61117;DHT22;47002;50.856;6.580;2023-01-15T10:21:54;4.80;76.70
61117;DHT22;47002;50.856;6.580;2023-01-15T10:24:27;4.90;75.80
61117;DHT22;47002;50.856;6.580;2023-01-15T10:26:56;4.90;75.30
61117;DHT22;47002;50.856;6.580;2023-01-15T10:29:29;4.90;76.00
61117;DHT22;47002;50.856;6.580;2023-01-15T10:32:01;4.90;76.40
61117;DHT22;47002;50.856;6.580;2023-01-15T10:37:16;5.00;75.00
61117;DHT22;47002;50.856;6.580;2023-01-15T10:39:47;5.00;75.30
61117;DHT22;47002;50.856;6.580;2023-01-15T10:42:27;5.00;75.90
61117;DHT22;47002;50.856;6.580;2023-01-15T10:45:00;5.00;75.30
61117;DHT22;47002;50.856;6.580;2023-01-15T10:47:31;5.10;74.30
61117;DHT22;47002;50.856;6.580;2023-01-15T10:49:58;5.10;75.50
61117;DHT22;47002;50.856;6.580;2023-01-15T10:52:30;5.10;73.70
61117;DHT22;47002;50.856;6.580;2023-01-15T10:55:04;5.10;74.00
61117;DHT22;47002;50.856;6.580;2023-01-15T10:57:38;5.10;74.20
61117;DHT22;47002;50.856;6.580;2023-01-15T11:00:10;5.10;73.10
61117;DHT22;47002;50.856;6.580;2023-01-15T11:02:39;5.10;73.40
61117;DHT22;47002;50.856;6.580;2023-01-15T11:05:05;5.20;73.90
61117;DHT22;47002;50.856;6.580;2023-01-15T11:07:35;5.20;73.60
61117;DHT22;47002;50.856;6.580;2023-01-15T11:10:06;5.20;71.80
61117;DHT22;47002;50.856;6.580;2023-01-15T11:12:35;5.20;72.90
61117;DHT22;47002;50.856;6.580;2023-01-15T11:15:14;5.30;72.80
61117;DHT22;47002;50.856;6.580;2023-01-15T11:17:42;5.30;72.30
61117;DHT22;47002;50.856;6.580;2023-01-15T11:20:18;5.30;73.20
61117;DHT22;47002;50.856;6.580;2023-01-15T11:22:44;5.30;71.80
61117;DHT22;47002;50.856;6.580;2023-01-15T11:25:10;5.30;71.70
61117;DHT22;47002;50.856;6.580;2023-01-15T11:27:36;5.40;72.50
61117;DHT22;47002;50.856;6.580;2023-01-15T11:30:04;5.40;73.50
61117;DHT22;47002;50.856;6.580;2023-01-15T11:32:34;5.50;72.70
61117;DHT22;47002;50.856;6.580;2023-01-15T11:35:01;5.50;72.60
61117;DHT22;47002;50.856;6.580;2023-01-15T11:37:28;5.50;71.80
61117;DHT22;47002;50.856;6.580;2023-01-15T11:39:55;5.50;71.50
61117;DHT22;47002;50.856;6.580;2023-01-15T11:42:21;5.50;71.40
61117;DHT22;47002;50.856;6.580;2023-01-15T11:44:51;5.40;72.90
61117;DHT22;47002;50.856;6.580;2023-01-15T11:47:18;5.30;71.90
61117;DHT22;47002;50.856;6.580;2023-01-15T11:49:50;5.30;73.20
61117;DHT22;47002;50.856;6.580;2023-01-15T11:52:19;5.30;73.20
61117;DHT22;47002;50.856;6.580;2023-01-15T11:54:49;5.40;72.40
61117;DHT22;47002;50.856;6.580;2023-01-15T11:57:23;5.40;72.30
61117;DHT22;47002;50.856;6.580;2023-01-15T11:59:50;5.40;73.20
61117;DHT22;47002;50.856;6.580;2023-01-15T12:02:22;5.30;72.10
61117;DHT22;47002;50.856;6.580;2023-01-15T12:04:52;5.20;72.70
61117;DHT22;47002;50.856;6.580;2023-01-15T12:07:19;5.10;72.50
61117;DHT22;47002;50.856;6.580;2023-01-15T12:10:03;5.00;72.70
61117;DHT22;47002;50.856;6.580;2023-01-15T12:12:38;4.90;73.50
61117;DHT22;47002;50.856;6.580;2023-01-15T12:15:18;4.90;73.30
61117;DHT22;47002;50.856;6.580;2023-01-15T12:17:56;5.10;72.70
61117;DHT22;47002;50.856;6.580;2023-01-15T12:20:27;5.20;72.20
61117;DHT22;47002;50.856;6.580;2023-01-15T12:23:05;5.40;72.50
61117;DHT22;47002;50.856;6.580;2023-01-15T12:25:43;5.60;70.20
61117;DHT22;47002;50.856;6.580;2023-01-15T12:28:14;5.70;71.50
61117;DHT22;47002;50.856;6.580;2023-01-15T12:30:47;5.60;69.90
61117;DHT22;47002;50.856;6.580;2023-01-15T12:33:20;5.80;71.00
61117;DHT22;47002;50.856;6.580;2023-01-15T12:35:55;5.80;70.60
61117;DHT22;47002;50.856;6.580;2023-01-15T12:38:38;5.80;69.60
61117;DHT22;47002;50.856;6.580;2023-01-15T12:41:09;5.90;69.90
61117;DHT22;47002;50.856;6.580;2023-01-15T12:43:36;5.90;71.10
61117;DHT22;47002;50.856;6.580;2023-01-15T12:46:04;5.90;70.50
61117;DHT22;47002;50.856;6.580;2023-01-15T12:48:36;5.90;70.20
61117;DHT22;47002;50.856;6.580;2023-01-15T12:51:13;5.90;68.90
61117;DHT22;47002;50.856;6.580;2023-01-15T12:53:43;5.90;70.10
61117;DHT22;47002;50.856;6.580;2023-01-15T12:56:15;6.00;70.90
61117;DHT22;47002;50.856;6.580;2023-01-15T12:58:45;6.10;69.60
61117;DHT22;47002;50.856;6.580;2023-01-15T13:01:16;6.10;68.70
61117;DHT22;47002;50.856;6.580;2023-01-15T13:03:52;6.50;68.20
61117;DHT22;47002;50.856;6.580;2023-01-15T13:06:24;6.90;66.00
61117;DHT22;47002;50.856;6.580;2023-01-15T13:08:55;7.30;64.20
61117;DHT22;47002;50.856;6.580;2023-01-15T13:11:22;7.60;63.80
61117;DHT22;47002;50.856;6.580;2023-01-15T13:13:48;7.80;64.50
61117;DHT22;47002;50.856;6.580;2023-01-15T13:16:17;8.00;61.70
61117;DHT22;47002;50.856;6.580;2023-01-15T13:18:55;8.00;62.90
61117;DHT22;47002;50.856;6.580;2023-01-15T13:21:28;8.10;62.00
61117;DHT22;47002;50.856;6.580;2023-01-15T13:24:16;8.10;59.80
61117;DHT22;47002;50.856;6.580;2023-01-15T13:26:52;8.10;61.20
61117;DHT22;47002;50.856;6.580;2023-01-15T13:29:28;8.20;60.60
61117;DHT22;47002;50.856;6.580;2023-01-15T13:32:02;8.10;59.00
61117;DHT22;47002;50.856;6.580;2023-01-15T13:34:34;8.10;59.50
61117;DHT22;47002;50.856;6.580;2023-01-15T13:37:19;8.20;59.90
61117;DHT22;47002;50.856;6.580;2023-01-15T13:39:46;8.30;58.70
61117;DHT22;47002;50.856;6.580;2023-01-15T13:42:18;8.30;58.80
61117;DHT22;47002;50.856;6.580;2023-01-15T13:44:46;8.20;57.80
61117;DHT22;47002;50.856;6.580;2023-01-15T13:47:17;8.30;58.60
61117;DHT22;47002;50.856;6.580;2023-01-15T13:49:48;8.20;58.70
61117;DHT22;47002;50.856;6.580;2023-01-15T13:52:23;8.30;58.90
61117;DHT22;47002;50.856;6.580;2023-01-15T13:54:50;8.00;60.10
61117;DHT22;47002;50.856;6.580;2023-01-15T13:57:23;7.50;61.50
61117;DHT22;47002;50.856;6.580;2023-01-15T13:59:49;7.10;63.00
61117;DHT22;47002;50.856;6.580;2023-01-15T14:02:24;7.10;63.50
61117;DHT22;47002;50.856;6.580;2023-01-15T14:04:50;6.80;63.80
61117;DHT22;47002;50.856;6.580;2023-01-15T14:07:30;6.70;62.70
61117;DHT22;47002;50.856;6.580;2023-01-15T14:10:07;6.70;64.10
61117;DHT22;47002;50.856;6.580;2023-01-15T14:12:41;6.40;64.80
61117;DHT22;47002;50.856;6.580;2023-01-15T14:15:24;6.10;64.50
61117;DHT22;47002;50.856;6.580;2023-01-15T14:18:16;5.90;66.20
61117;DHT22;47002;50.856;6.580;2023-01-15T14:21:05;5.80;67.60
61117;DHT22;47002;50.856;6.580;2023-01-15T14:23:56;5.60;67.70
61117;DHT22;47002;50.856;6.580;2023-01-15T14:26:30;5.60;68.80
61117;DHT22;47002;50.856;6.580;2023-01-15T14:29:23;5.50;68.00
61117;DHT22;47002;50.856;6.580;2023-01-15T14:32:00;5.50;67.30
61117;DHT22;47002;50.856;6.580;2023-01-15T14:34:29;5.50;68.70
61117;DHT22;47002;50.856;6.580;2023-01-15T14:36:57;5.50;68.80
61117;DHT22;47002;50.856;6.580;2023-01-15T14:39:32;5.50;69.30
61117;DHT22;47002;50.856;6.580;2023-01-15T14:42:05;5.50;68.60
61117;DHT22;47002;50.856;6.580;2023-01-15T14:44:34;5.50;68.80
61117;DHT22;47002;50.856;6.580;2023-01-15T14:47:02;5.40;69.10
61117;DHT22;47002;50.856;6.580;2023-01-15T14:49:29;5.40;69.10
61117;DHT22;47002;50.856;6.580;2023-01-15T14:51:55;5.40;69.60
61117;DHT22;47002;50.856;6.580;2023-01-15T14:54:23;5.40;69.60
61117;DHT22;47002;50.856;6.580;2023-01-15T14:56:51;5.40;69.90
61117;DHT22;47002;50.856;6.580;2023-01-15T14:59:22;5.40;69.90
61117;DHT22;47002;50.856;6.580;2023-01-15T15:01:51;5.30;70.40
61117;DHT22;47002;50.856;6.580;2023-01-15T15:04:22;5.30;70.40
61117;DHT22;47002;50.856;6.580;2023-01-15T15:06:53;5.30;71.50
61117;DHT22;47002;50.856;6.580;2023-01-15T15:09:28;5.20;70.80
61117;DHT22;47002;50.856;6.580;2023-01-15T15:11:58;5.10;72.30
61117;DHT22;47002;50.856;6.580;2023-01-15T15:14:30;5.10;71.90
61117;DHT22;47002;50.856;6.580;2023-01-15T15:17:00;5.00;72.40
61117;DHT22;47002;50.856;6.580;2023-01-15T15:19:29;5.00;73.00
61117;DHT22;47002;50.856;6.580;2023-01-15T15:22:02;4.90;72.90
61117;DHT22;47002;50.856;6.580;2023-01-15T15:24:31;4.80;73.20
61117;DHT22;47002;50.856;6.580;2023-01-15T15:27:08;4.80;73.20
61117;DHT22;47002;50.856;6.580;2023-01-15T15:29:33;4.80;73.20
61117;DHT22;47002;50.856;6.580;2023-01-15T15:32:00;4.90;72.80
61117;DHT22;47002;50.856;6.580;2023-01-15T15:34:28;5.00;72.60
61117;DHT22;47002;50.856;6.580;2023-01-15T15:36:54;5.00;71.80
61117;DHT22;47002;50.856;6.580;2023-01-15T15:39:24;5.00;72.10
61117;DHT22;47002;50.856;6.580;2023-01-15T15:41:53;5.00;71.50
61117;DHT22;47002;50.856;6.580;2023-01-15T15:44:26;5.00;71.00
61117;DHT22;47002;50.856;6.580;2023-01-15T15:46:55;5.00;71.80
61117;DHT22;47002;50.856;6.580;2023-01-15T15:49:22;4.90;72.00
61117;DHT22;47002;50.856;6.580;2023-01-15T15:51:49;4.90;71.20
61117;DHT22;47002;50.856;6.580;2023-01-15T15:54:17;5.00;71.90
61117;DHT22;47002;50.856;6.580;2023-01-15T15:56:51;5.00;72.30
61117;DHT22;47002;50.856;6.580;2023-01-15T15:59:26;5.10;71.60